ADDS METAR Data INFO
IDs: Format: Raw Decoded Include TAF

Data at: 0318 UTC 20 Jul 2018

KFOK 200253Z 00000KT 10SM CLR 16/13 A3015 RMK AO2 SLP207 T01560128 51010
KFOK 200153Z 00000KT 10SM CLR 16/13 A3014 RMK AO2 SLP206 T01610133
KFOK 200053Z 16003KT 10SM CLR 18/14 A3012 RMK AO2 SLP200 T01830139
KFOK 192353Z 20003KT 10SM CLR 22/14 A3012 RMK AO2 SLP197 T02170144 10256 20217 53004
KFOK 192253Z 17005KT 10SM CLR 24/14 A3011 RMK AO2 SLP197 T02390139
KFOK 192153Z 19006KT 10SM CLR 24/13 A3010 RMK AO2 SLP193 T02440128
KFOK 192053Z 17007KT 10SM CLR 24/14 A3010 RMK AO2 SLP193 T02440139 56003
KFOK 191953Z 17008KT 10SM CLR 25/13 A3010 RMK AO2 SLP193 T02500128
KFOK 191853Z 18006KT 10SM CLR 26/13 A3011 RMK AO2 SLP194 T02560133
KFOK 191753Z 12006KT 10SM CLR 25/13 A3011 RMK AO2 SLP196 T02500133 10267 20211 58002
KFOK 191653Z 13009KT 10SM CLR 24/13 A3012 RMK AO2 SLP199 T02440133
KFOK 191553Z 08006KT 10SM CLR 26/10 A3013 RMK AO2 SLP201 T02560100
KFOK 191453Z VRB03KT 10SM CLR 24/10 A3012 RMK AO2 SLP198 T02440100 51010
KFOK 191353Z 04007KT 10SM CLR 24/12 A3011 RMK AO2 SLP196 T02390122
KFOK 191253Z 01008KT 10SM CLR 22/12 A3010 RMK AO2 SLP193 T02220122
KFOK 191153Z 03006KT 10SM CLR 21/12 A3009 RMK AO2 SLP188 T02110117 10211 20139 53014
KFOK 191053Z 01004KT 10SM CLR 19/12 A3007 RMK AO2 SLP182 T01890117
KFOK 190953Z AUTO 00000KT 10SM CLR 14/10 A3006 RMK AO2 SLP178 T01390100
KFOK 190853Z AUTO 02006KT 10SM CLR 17/11 A3005 RMK AO2 SLP174 T01670111 53013
KFOK 190753Z AUTO 02005KT 10SM CLR 18/12 A3003 RMK AO2 SLP169 T01780122
KFOK 190653Z AUTO 01006KT 10SM CLR 14/11 A3002 RMK AO2 SLP166 T01440106
KFOK 190553Z AUTO 01006KT 10SM CLR 18/11 A3001 RMK AO2 SLP161 T01780111 10250 20167 53012
KFOK 190453Z AUTO 04005KT 10SM CLR 18/12 A2999 RMK AO2 SLP155 T01830117 402940167
KFOK 190353Z AUTO 04006KT 10SM CLR 19/12 A2998 RMK AO2 SLP152 T01890122
KFOK 190253Z 02006KT 10SM CLR 21/13 A2997 RMK AO2 SLP149 T02110128 51018
KFOK 190153Z 01005KT 10SM CLR 18/12 A2996 RMK AO2 SLP146 T01780122
KFOK 190053Z 35004KT 10SM CLR 21/13 A2995 RMK AO2 SLP139 T02060128
KFOK 182353Z 33005KT 10SM CLR 25/12 A2992 RMK AO2 SLP132 T02500122 10294 20250 53013
KFOK 182253Z 32011KT 10SM CLR 27/11 A2990 RMK AO2 SLP125 T02720111
KFOK 182153Z 32012KT 10SM CLR 28/12 A2989 RMK AO2 SLP122 T02830122
KFOK 182053Z 32010KT 10SM CLR 29/11 A2989 RMK AO2 SLP119 T02890111 55000
KFOK 181953Z 31010KT 10SM CLR 29/12 A2988 RMK AO2 SLP118 T02940122
KFOK 181853Z 01010KT 10SM CLR 29/13 A2989 RMK AO2 SLP120 T02940133
KFOK 181753Z 01011KT 10SM CLR 29/14 A2989 RMK AO2 SLP119 T02890144 10289 20222 55000
KFOK 181653Z 36011KT 10SM CLR 28/15 A2988 RMK AO2 SLP119 T02830150
KFOK 181553Z 36009KT 10SM SCT065 27/16 A2988 RMK AO2 SLP119 T02720161